Decoded Metar for KW29 (STEVENSVILLE in MD, USA) (IATA:W29) | Meteo·Mobile Aviation Weather
aviador You're here:

KW29 Decoded Metar

STEVENSVILLE in MD, USA
Report Time2019-06-17 15:15:00
UTC Time2019-06-17 15:46:06
Flight Rules vfr VFR
WindCalm
Visibility9999 m
Phenomena:N/A
Clouds:N/A
Expected CloudBase > 3,600 ft AGL from Temp-Dew spread
CeilingNone
Temp28°C (ISA +13)
Dew Point19°C (58% RH)
Heat Index29.2°C
QNH1015 hPa
Density Alt1,781 ft
Elevation49 ft
Report Wrong Elevation
Raw Report
KW29 171515Z AUTO 00000KT 10SM CLR 28/19 A2998 RMK AO2=

Extra information for KW29:More info

Metar Taf Metar & Taf Last 4 Metars F.Rules Stats Wind Profile Meteogram Temp Stats Airport Information Weather charts Add Link Nearby VenuesMetar ALERT Operation Metar Decoded Social comments

AIRNAV info for KW29